Hawkesbury, Canada
Current Conditions -  °F | °C
As of 11:00 PM on Tuesday 21 Oct 2014 (Local Time) from CYMX Reporting Station
Overcast Overcast  
Wind Chill:   Ceiling: 5800
Heat Index:   Visibility: 25mi
Dew Point: -1°   Wind: 7mph
Humidity: 57%   Direction: 50°NE
Pressure: 30.19"   Gusts: 20mph
Location:  45.61°N, 74.61°W
Report Text: CYMX 220300Z 05006G17KT 340V100 25SM OVC058 07/M01 A3019 RMK SC8 SLP226
Loading
Personal Weather Stations






























Interactive Weather Map
Tropical Storm Tracking
New forecast layout! Learn more

10-Day Weather Forecast

Advertisements
Track Severe Weather on mobile